createdAt,value
2023-12-03T00:03:27.291Z,11.37
2023-12-03T00:07:34.209Z,13.93
2023-12-03T00:11:40.108Z,12.60
2023-12-03T00:15:45.842Z,8.50
2023-12-03T00:19:51.446Z,8.50
2023-12-03T00:23:56.997Z,9.60
2023-12-03T00:28:02.642Z,10.67
2023-12-03T00:32:08.695Z,9.90
2023-12-03T00:36:14.437Z,10.27
2023-12-03T00:40:19.964Z,7.10
2023-12-03T00:44:25.993Z,9.10
2023-12-03T00:48:31.684Z,8.07
2023-12-03T00:52:37.356Z,7.80
2023-12-03T00:56:42.870Z,13.33
2023-12-03T01:00:48.734Z,8.47
2023-12-03T01:04:54.448Z,7.87
2023-12-03T01:09:00.044Z,6.30
2023-12-03T01:13:05.661Z,10.73
2023-12-03T01:17:11.187Z,7.87
2023-12-03T01:21:16.851Z,8.60
2023-12-03T01:25:22.710Z,9.40
2023-12-03T01:29:29.449Z,8.10
2023-12-03T01:33:35.294Z,10.30
2023-12-03T01:37:40.871Z,10.63
2023-12-03T01:41:46.342Z,8.03
2023-12-03T01:45:51.993Z,9.70
2023-12-03T01:50:08.311Z,9.63
2023-12-03T01:54:14.219Z,9.03
2023-12-03T01:58:19.948Z,9.30
2023-12-03T02:02:25.633Z,7.97
2023-12-03T02:06:31.310Z,8.63
2023-12-03T02:10:36.978Z,9.27
2023-12-03T02:14:42.580Z,13.77
2023-12-03T02:18:48.437Z,11.10
2023-12-03T02:23:01.691Z,11.27
2023-12-03T02:27:07.517Z,11.90
2023-12-03T02:31:13.175Z,10.93
2023-12-03T02:35:18.774Z,9.90
2023-12-03T02:39:24.395Z,7.63
2023-12-03T02:43:29.999Z,7.50
2023-12-03T02:47:35.874Z,7.37
2023-12-03T02:51:41.505Z,9.60
2023-12-03T02:55:47.231Z,7.83
2023-12-03T02:59:52.712Z,8.80
2023-12-03T03:03:58.362Z,10.90
2023-12-03T03:08:04.051Z,9.47
2023-12-03T03:12:09.675Z,9.30
2023-12-03T03:16:15.418Z,10.80
2023-12-03T03:20:23.053Z,7.60
2023-12-03T03:24:29.388Z,8.63
2023-12-03T03:28:34.992Z,7.77
2023-12-03T03:32:40.638Z,9.07
2023-12-03T03:36:46.416Z,7.50
2023-12-03T03:40:51.942Z,8.53
2023-12-03T03:44:57.490Z,10.53
2023-12-03T03:49:03.216Z,8.03
2023-12-03T03:53:08.828Z,11.53
2023-12-03T03:57:14.346Z,10.53
2023-12-03T04:01:19.953Z,8.50
2023-12-03T04:05:25.617Z,8.03
2023-12-03T04:09:33.364Z,8.13
2023-12-03T04:13:38.955Z,8.03
2023-12-03T04:17:44.725Z,7.83
2023-12-03T04:21:50.407Z,9.27
2023-12-03T04:25:56.006Z,9.30
2023-12-03T04:30:01.705Z,9.57
2023-12-03T04:34:07.453Z,10.40
2023-12-03T04:38:13.852Z,18.77
2023-12-03T04:42:19.443Z,11.03
2023-12-03T04:46:25.009Z,10.57
2023-12-03T04:50:30.535Z,9.83
2023-12-03T04:54:36.399Z,12.50
2023-12-03T04:58:43.270Z,12.97
2023-12-03T05:02:48.941Z,13.67
2023-12-03T05:06:55.760Z,18.80
2023-12-03T05:11:06.849Z,13.10
2023-12-03T05:15:12.488Z,11.70
2023-12-03T05:19:18.122Z,19.13
2023-12-03T05:23:24.422Z,19.13
2023-12-03T05:27:30.080Z,17.13
2023-12-03T05:31:35.652Z,19.33
2023-12-03T05:35:41.228Z,27.77
2023-12-03T05:39:46.788Z,17.17
2023-12-03T05:43:53.290Z,33.73
2023-12-03T05:47:58.924Z,19.13
2023-12-03T05:52:04.777Z,18.60
2023-12-03T05:56:11.148Z,21.80
2023-12-03T06:00:17.466Z,14.07
2023-12-03T06:04:23.133Z,17.77
2023-12-03T06:08:28.998Z,17.97
2023-12-03T06:12:34.525Z,23.70
2023-12-03T06:16:40.121Z,19.83
2023-12-03T06:20:45.592Z,31.03
2023-12-03T06:24:51.327Z,22.07
2023-12-03T06:28:57.364Z,30.00
2023-12-03T06:33:03.134Z,14.73
2023-12-03T06:37:09.422Z,14.93
2023-12-03T06:41:15.988Z,11.97
2023-12-03T06:45:21.603Z,16.80
2023-12-03T06:49:27.213Z,12.50
2023-12-03T06:53:32.800Z,15.03
2023-12-03T06:57:38.288Z,60.00
2023-12-03T07:01:43.892Z,44.23
2023-12-03T07:05:50.091Z,13.93
2023-12-03T07:09:55.668Z,15.80
2023-12-03T07:14:01.618Z,17.37
2023-12-03T07:18:07.190Z,47.83
2023-12-03T07:22:13.216Z,30.33
2023-12-03T07:26:18.758Z,11.77
2023-12-03T07:38:36.698Z,15.87
2023-12-03T07:42:42.342Z,16.00
2023-12-03T07:46:48.433Z,13.80
2023-12-03T07:50:53.972Z,14.53
2023-12-03T07:54:59.636Z,14.20
2023-12-03T07:59:05.727Z,19.50
2023-12-03T08:03:11.328Z,17.40
2023-12-03T08:07:17.667Z,14.50
2023-12-03T08:11:23.391Z,16.80
2023-12-03T08:15:29.027Z,16.27
2023-12-03T08:19:34.976Z,17.27
2023-12-03T08:23:41.683Z,18.97
2023-12-03T08:27:47.609Z,15.30
2023-12-03T08:31:53.232Z,17.80
2023-12-03T08:35:58.896Z,23.27
2023-12-03T08:40:06.222Z,21.20
2023-12-03T08:44:12.064Z,18.10
2023-12-03T08:48:17.776Z,30.80
2023-12-03T08:52:23.319Z,18.83
2023-12-03T08:56:29.049Z,14.27
2023-12-03T09:00:34.669Z,15.37
2023-12-03T12:14:40.193Z,18.27
2023-12-03T12:18:47.284Z,16.93
2023-12-03T19:17:22.555Z,20.67
2023-12-03T19:21:28.625Z,27.20
2023-12-03T19:25:34.258Z,26.83
2023-12-03T19:29:39.882Z,28.30
2023-12-03T19:33:45.569Z,23.00
2023-12-03T19:37:51.131Z,20.43
2023-12-03T19:41:56.669Z,24.30
2023-12-03T19:46:02.288Z,28.40
2023-12-03T19:50:08.218Z,22.40
2023-12-03T19:54:13.741Z,24.93
2023-12-03T19:58:20.062Z,24.10
2023-12-03T20:02:25.661Z,21.13
2023-12-03T20:43:26.127Z,26.83
2023-12-03T20:47:31.664Z,23.90
2023-12-03T20:51:37.321Z,21.87
2023-12-03T20:55:42.940Z,15.70
2023-12-03T20:59:48.783Z,19.83
2023-12-03T21:03:54.370Z,17.73
2023-12-03T21:07:59.927Z,18.90
2023-12-03T21:12:05.690Z,14.20
2023-12-03T21:16:11.381Z,17.40
2023-12-03T21:20:17.049Z,16.53
2023-12-03T21:24:22.610Z,16.13
2023-12-03T21:28:28.120Z,16.97
2023-12-03T21:32:33.829Z,18.10
2023-12-03T21:36:39.425Z,17.33
2023-12-03T21:40:45.017Z,15.83
2023-12-03T21:44:51.020Z,15.00
2023-12-03T21:48:57.547Z,16.43
2023-12-03T21:53:03.143Z,12.10
2023-12-03T21:57:08.724Z,18.40
2023-12-03T22:01:14.286Z,15.77
2023-12-03T22:05:19.872Z,16.00
2023-12-03T22:09:25.426Z,12.33
2023-12-03T22:13:31.172Z,13.70
2023-12-03T22:17:37.078Z,14.90
2023-12-03T22:21:42.685Z,16.07
2023-12-03T22:25:48.230Z,16.83
2023-12-03T22:29:57.226Z,15.50
2023-12-03T22:34:09.148Z,12.37
2023-12-03T22:38:14.794Z,15.83
2023-12-03T22:42:20.332Z,14.43
2023-12-03T22:46:25.966Z,14.23
2023-12-03T22:50:32.028Z,12.43
2023-12-03T22:54:37.758Z,14.57
2023-12-03T22:58:43.430Z,20.07
2023-12-03T23:02:49.280Z,14.33
2023-12-03T23:06:54.959Z,13.17
